Terminal Aerodrome Forecast
Issued by NWS

Home | Current Version | Previous Version | Text Only | Print | Product List | Glossary On
Versions: 1 2 3 4 5 6 7 8 9 10 11 12 13 14 15 16 17
743
FTUS46 KHNX 081812 AAA
TAFMER
TAF AMD
KMER 081812Z 0818/0918 12010G15KT 2SM -RA SCT005 OVC020
     FM082000 13015G23KT 4SM -RA BR OVC025
     FM090100 13008KT 2SM -RA BR OVC015=

USA.gov is the U.S. government's official web portal to all federal, state and local government web resources and services.